createdAt,value
2018-12-22T00:00:43.612Z,11.58
2018-12-22T00:01:43.600Z,11.64
2018-12-22T00:02:43.579Z,11.57
2018-12-22T00:03:43.579Z,11.58
2018-12-22T00:04:43.543Z,11.69
2018-12-22T00:05:43.524Z,11.61
2018-12-22T00:06:43.509Z,11.62
2018-12-22T00:07:43.492Z,11.58
2018-12-22T00:08:43.484Z,11.62
2018-12-22T00:09:43.466Z,11.62
2018-12-22T00:10:43.440Z,11.57
2018-12-22T00:11:43.416Z,11.62
2018-12-22T00:12:43.390Z,11.64
2018-12-22T00:13:43.397Z,11.52
2018-12-22T00:14:43.359Z,11.60
2018-12-22T00:15:43.345Z,11.62
2018-12-22T00:16:43.321Z,11.62
2018-12-22T00:17:43.307Z,11.65
2018-12-22T00:18:43.288Z,11.60
2018-12-22T00:19:43.285Z,11.64
2018-12-22T00:20:43.249Z,11.69
2018-12-22T00:21:43.228Z,11.67
2018-12-22T00:22:43.215Z,11.62
2018-12-22T00:23:43.196Z,11.64
2018-12-22T00:24:43.194Z,11.60
2018-12-22T00:25:43.155Z,11.55
2018-12-22T00:26:43.144Z,11.51
2018-12-22T00:27:43.123Z,11.61
2018-12-22T00:28:43.102Z,11.49
2018-12-22T00:29:43.085Z,11.51
2018-12-22T00:30:43.090Z,11.44
2018-12-22T00:31:43.054Z,11.46
2018-12-22T00:32:43.032Z,11.49
2018-12-22T00:33:43.016Z,11.46
2018-12-22T00:34:42.992Z,11.44
2018-12-22T00:35:42.989Z,11.46
2018-12-22T00:36:42.981Z,11.47
2018-12-22T00:37:42.946Z,11.43
2018-12-22T00:38:42.925Z,11.55
2018-12-22T00:39:42.906Z,11.42
2018-12-22T00:40:42.885Z,11.47
2018-12-22T00:41:42.881Z,11.46
2018-12-22T00:42:42.861Z,11.46
2018-12-22T00:43:42.831Z,11.35
2018-12-22T00:44:42.811Z,11.27
2018-12-22T00:45:42.797Z,11.21
2018-12-22T00:46:42.791Z,11.15
2018-12-22T00:47:42.757Z,11.14
2018-12-22T00:48:42.737Z,10.99
2018-12-22T00:49:42.745Z,10.92
2018-12-22T00:50:42.701Z,10.89
2018-12-22T00:51:42.679Z,10.89
2018-12-22T00:52:42.672Z,10.84
2018-12-22T00:53:42.671Z,10.78
2018-12-22T00:54:42.629Z,10.82
2018-12-22T00:55:42.607Z,10.81
2018-12-22T00:56:42.591Z,10.76
2018-12-22T00:57:42.572Z,10.66
2018-12-22T00:58:42.565Z,10.66
2018-12-22T00:59:42.549Z,10.66
2018-12-22T01:00:42.536Z,10.68
2018-12-22T01:01:42.499Z,10.63
2018-12-22T01:02:42.483Z,10.66
2018-12-22T01:03:42.461Z,10.67
2018-12-22T01:04:42.440Z,10.71
2018-12-22T01:05:42.458Z,10.67
2018-12-22T01:06:42.407Z,10.68
2018-12-22T01:07:42.386Z,10.63
2018-12-22T01:08:42.369Z,10.63
2018-12-22T01:09:42.348Z,10.60
2018-12-22T01:10:42.346Z,10.56
2018-12-22T01:11:42.308Z,10.63
2018-12-22T01:12:42.300Z,10.56
2018-12-22T01:13:42.275Z,10.66
2018-12-22T01:14:42.262Z,10.67
2018-12-22T01:15:42.237Z,10.61
2018-12-22T01:16:42.249Z,10.66
2018-12-22T01:17:42.198Z,10.56
2018-12-22T01:18:42.175Z,10.59
2018-12-22T01:19:42.160Z,10.52
2018-12-22T01:20:42.144Z,10.52
2018-12-22T01:21:42.142Z,10.52
2018-12-22T01:22:42.101Z,10.53
2018-12-22T01:23:42.082Z,10.52
2018-12-22T01:24:42.064Z,10.59
2018-12-22T01:25:42.049Z,10.55
2018-12-22T01:26:42.046Z,10.51
2018-12-22T01:27:42.026Z,10.45
2018-12-22T01:28:41.995Z,10.59
2018-12-22T01:29:41.971Z,10.56
2018-12-22T01:30:41.951Z,10.55
2018-12-22T01:31:41.929Z,10.47
2018-12-22T01:32:41.931Z,10.55
2018-12-22T01:33:41.894Z,10.47
2018-12-22T01:34:41.874Z,10.45
2018-12-22T01:35:41.856Z,10.34
2018-12-22T01:36:41.847Z,10.51
2018-12-22T01:37:41.847Z,10.47
2018-12-22T01:38:41.805Z,10.45
2018-12-22T01:39:41.782Z,10.53
2018-12-22T01:40:41.783Z,10.42
2018-12-22T01:41:41.744Z,10.42
2018-12-22T01:42:41.722Z,10.55
2018-12-22T01:43:41.720Z,10.51
2018-12-22T01:44:41.684Z,10.53
2018-12-22T01:45:41.681Z,10.44
2018-12-22T01:46:41.746Z,10.51
2018-12-22T01:47:41.704Z,10.48
2018-12-22T01:48:41.621Z,10.55
2018-12-22T01:49:41.591Z,10.61
2018-12-22T01:50:41.584Z,10.61
2018-12-22T01:51:41.553Z,10.67
2018-12-22T01:52:41.533Z,10.60
2018-12-22T01:53:41.515Z,10.60
2018-12-22T01:54:41.493Z,10.59
2018-12-22T01:55:41.490Z,10.63
2018-12-22T01:56:41.459Z,10.64
2018-12-22T01:57:41.440Z,10.64
2018-12-22T01:58:47.841Z,10.81
2018-12-22T01:59:41.394Z,10.81
2018-12-22T02:00:41.417Z,10.86
2018-12-22T02:01:41.367Z,10.76
2018-12-22T02:02:41.343Z,10.82
2018-12-22T02:03:41.328Z,10.79
2018-12-22T02:04:41.302Z,10.81
2018-12-22T02:05:41.285Z,10.85
2018-12-22T02:06:41.283Z,10.76
2018-12-22T02:07:41.252Z,10.73
2018-12-22T02:08:41.234Z,10.78
2018-12-22T02:09:41.212Z,10.64
2018-12-22T02:10:41.192Z,10.85
2018-12-22T02:11:41.190Z,10.84
2018-12-22T02:12:41.154Z,10.88
2018-12-22T02:13:41.144Z,10.92
2018-12-22T02:14:41.116Z,10.89
2018-12-22T02:15:41.099Z,10.89
2018-12-22T02:16:41.079Z,11.00
2018-12-22T02:17:41.076Z,11.07
2018-12-22T02:18:41.060Z,10.96
2018-12-22T02:19:41.018Z,10.97
2018-12-22T02:20:41.001Z,10.85
2018-12-22T02:21:40.979Z,10.94
2018-12-22T02:22:40.966Z,10.88
2018-12-22T02:23:40.964Z,10.89
2018-12-22T02:24:40.926Z,10.91
2018-12-22T02:25:40.906Z,10.88
2018-12-22T02:26:40.886Z,10.81
2018-12-22T02:27:40.869Z,10.76
2018-12-22T02:28:40.852Z,10.96
2018-12-22T02:29:40.848Z,11.17
2018-12-22T02:30:40.818Z,11.17
2018-12-22T02:31:40.816Z,11.24
2018-12-22T02:32:40.778Z,11.24
2018-12-22T02:33:40.754Z,11.18
2018-12-22T02:34:40.735Z,11.15
2018-12-22T02:35:40.715Z,11.14
2018-12-22T02:36:40.709Z,11.22
2018-12-22T02:37:40.707Z,11.32
2018-12-22T02:38:40.662Z,11.29
2018-12-22T02:39:40.644Z,11.27
2018-12-22T02:40:40.619Z,11.35
2018-12-22T02:41:40.609Z,11.22
2018-12-22T02:42:40.588Z,11.22
2018-12-22T02:43:40.630Z,11.24
2018-12-22T02:44:41.229Z,11.17
2018-12-22T02:45:40.534Z,11.24
2018-12-22T02:46:40.538Z,11.18
2018-12-22T02:47:40.541Z,11.15
2018-12-22T02:48:40.478Z,11.29
2018-12-22T02:49:40.465Z,11.29
2018-12-22T02:50:40.441Z,11.29
2018-12-22T02:51:40.423Z,11.21
2018-12-22T02:52:40.412Z,11.33
2018-12-22T02:53:40.380Z,11.27
2018-12-22T02:54:40.362Z,11.43
2018-12-22T02:55:40.342Z,11.39
2018-12-22T02:56:40.349Z,11.22
2018-12-22T02:57:40.306Z,11.33
2018-12-22T02:58:40.286Z,11.32
2018-12-22T02:59:40.274Z,11.43
2018-12-22T03:00:40.248Z,11.52
2018-12-22T03:01:40.229Z,11.40
2018-12-22T03:02:40.232Z,11.44
2018-12-22T03:03:40.198Z,11.47
2018-12-22T03:04:40.171Z,11.43
2018-12-22T03:05:40.167Z,11.44
2018-12-22T03:06:40.758Z,11.40
2018-12-22T03:07:40.120Z,11.29
2018-12-22T03:08:40.201Z,11.33
2018-12-22T03:09:40.081Z,11.22
2018-12-22T03:10:40.119Z,11.32
2018-12-22T03:11:40.047Z,11.39
2018-12-22T03:12:40.024Z,11.35
2018-12-22T03:13:40.003Z,11.33
2018-12-22T03:14:40.007Z,11.36
2018-12-22T03:15:39.976Z,11.42
2018-12-22T03:16:39.953Z,11.43
2018-12-22T03:17:39.934Z,11.35
2018-12-22T03:18:39.907Z,11.32
2018-12-22T03:19:39.894Z,11.29
2018-12-22T03:20:39.890Z,11.27
2018-12-22T03:21:39.862Z,11.25
2018-12-22T03:22:39.841Z,11.24
2018-12-22T03:23:39.817Z,11.11
2018-12-22T03:24:39.802Z,11.14
2018-12-22T03:25:39.797Z,11.04
2018-12-22T03:26:39.766Z,10.88
2018-12-22T03:27:39.746Z,10.94
2018-12-22T03:28:39.746Z,10.85
2018-12-22T03:29:39.705Z,10.74
2018-12-22T03:30:39.692Z,10.64
2018-12-22T03:31:39.672Z,10.76
2018-12-22T03:32:39.651Z,10.73
2018-12-22T03:33:39.634Z,10.73
2018-12-22T03:34:39.631Z,10.66
2018-12-22T03:35:39.591Z,10.64
2018-12-22T03:36:39.576Z,10.60
2018-12-22T03:37:39.553Z,10.63
2018-12-22T03:38:39.539Z,10.66
2018-12-22T03:39:39.517Z,10.60
2018-12-22T03:40:39.513Z,10.64
2018-12-22T03:41:39.483Z,10.55
2018-12-22T03:42:39.475Z,10.60
2018-12-22T03:43:39.444Z,10.64
2018-12-22T03:44:39.427Z,10.66
2018-12-22T03:45:39.402Z,10.55
2018-12-22T03:46:39.400Z,10.56
2018-12-22T03:47:39.360Z,10.61
2018-12-22T03:48:39.343Z,10.59
2018-12-22T03:49:39.352Z,10.61
2018-12-22T03:50:39.312Z,10.47
2018-12-22T03:51:39.319Z,10.51
2018-12-22T03:52:39.267Z,10.48
2018-12-22T03:53:39.268Z,10.55
2018-12-22T03:54:39.230Z,10.44
2018-12-22T03:55:39.210Z,10.45
2018-12-22T03:56:39.203Z,10.55
2018-12-22T03:57:39.188Z,10.56
2018-12-22T03:58:39.156Z,10.55
2018-12-22T03:59:39.131Z,10.44
2018-12-22T04:00:39.110Z,10.53
2018-12-22T04:01:39.094Z,10.55
2018-12-22T04:02:39.092Z,10.53
2018-12-22T04:03:39.060Z,10.53
2018-12-22T04:04:39.033Z,10.51
2018-12-22T04:05:39.021Z,10.59
2018-12-22T04:06:39.000Z,10.53
2018-12-22T04:07:38.973Z,10.53
2018-12-22T04:08:38.977Z,10.56
2018-12-22T04:09:38.946Z,10.59
2018-12-22T04:10:38.921Z,10.59
2018-12-22T04:11:38.902Z,10.53
2018-12-22T04:12:38.881Z,10.53
2018-12-22T04:13:38.889Z,10.51
2018-12-22T04:14:38.841Z,10.59
2018-12-22T04:15:38.821Z,10.67
2018-12-22T04:16:38.819Z,10.66
2018-12-22T04:17:38.785Z,10.64
2018-12-22T04:18:38.783Z,10.59
2018-12-22T04:19:38.750Z,10.63
2018-12-22T04:20:38.788Z,10.66
2018-12-22T04:21:38.724Z,10.55
2018-12-22T04:22:39.200Z,10.55
2018-12-22T04:23:38.670Z,10.48
2018-12-22T04:24:38.666Z,10.59
2018-12-22T04:25:38.627Z,10.61
2018-12-22T04:26:38.615Z,10.60
2018-12-22T04:27:38.587Z,10.66
2018-12-22T04:28:38.573Z,10.74
2018-12-22T04:29:38.554Z,10.67
2018-12-22T04:30:38.559Z,10.71
2018-12-22T04:31:38.530Z,10.66
2018-12-22T04:32:38.494Z,10.73
2018-12-22T04:33:38.478Z,10.63
2018-12-22T04:34:38.460Z,10.61
2018-12-22T04:35:38.454Z,10.60
2018-12-22T04:36:38.439Z,10.73
2018-12-22T04:37:38.401Z,10.78
2018-12-22T04:38:38.395Z,10.71
2018-12-22T04:39:38.369Z,10.76
2018-12-22T04:40:38.338Z,10.79
2018-12-22T04:41:38.321Z,10.88
2018-12-22T04:42:38.322Z,10.76
2018-12-22T04:43:38.284Z,10.78
2018-12-22T04:44:38.267Z,10.84
2018-12-22T04:45:38.242Z,10.84
2018-12-22T04:46:38.253Z,10.88
2018-12-22T04:47:39.999Z,10.99
2018-12-22T04:48:38.186Z,10.97
2018-12-22T04:49:38.168Z,10.85
2018-12-22T04:50:38.149Z,10.84
2018-12-22T04:51:38.128Z,10.91
2018-12-22T04:52:38.120Z,10.86
2018-12-22T04:53:38.121Z,10.86
2018-12-22T04:54:38.093Z,10.81
2018-12-22T04:55:38.053Z,10.88
2018-12-22T04:56:38.031Z,10.76
2018-12-22T04:57:38.018Z,10.76
2018-12-22T04:58:38.016Z,10.82
2018-12-22T04:59:42.980Z,10.79
2018-12-22T05:00:37.960Z,10.86
2018-12-22T05:01:37.939Z,10.89
2018-12-22T05:02:37.925Z,10.86
2018-12-22T05:03:37.902Z,10.85
2018-12-22T05:04:37.892Z,10.84
2018-12-22T05:05:37.881Z,10.86
2018-12-22T05:06:37.849Z,10.82
2018-12-22T05:07:37.824Z,10.89
2018-12-22T05:08:37.814Z,10.74
2018-12-22T05:09:37.788Z,10.78
2018-12-22T05:10:37.782Z,10.81
2018-12-22T05:11:37.749Z,10.78
2018-12-22T05:12:37.730Z,10.78
2018-12-22T05:13:37.712Z,10.78
2018-12-22T05:14:37.706Z,10.84
2018-12-22T05:15:37.699Z,10.71
2018-12-22T05:16:37.656Z,10.67
2018-12-22T05:17:37.637Z,10.68
2018-12-22T05:18:37.615Z,10.79
2018-12-22T05:19:37.595Z,10.81
2018-12-22T05:20:37.599Z,10.85
2018-12-22T05:21:37.564Z,10.78
2018-12-22T05:22:37.542Z,10.92
2018-12-22T05:23:37.527Z,10.91
2018-12-22T05:24:37.503Z,10.89
2018-12-22T05:25:37.482Z,10.91
2018-12-22T05:26:37.478Z,10.88
2018-12-22T05:27:37.442Z,10.91
2018-12-22T05:28:37.427Z,10.91
2018-12-22T05:29:37.408Z,10.91
2018-12-22T05:30:37.384Z,10.86
2018-12-22T05:31:37.384Z,11.03
2018-12-22T05:32:37.340Z,11.00
2018-12-22T05:33:37.331Z,10.89
2018-12-22T05:34:37.310Z,10.86
2018-12-22T05:35:37.296Z,10.94
2018-12-22T05:36:37.300Z,11.02
2018-12-22T05:37:37.270Z,10.96
2018-12-22T05:38:37.250Z,11.00
2018-12-22T05:39:37.219Z,10.85
2018-12-22T05:40:37.203Z,11.02
2018-12-22T05:41:37.178Z,11.09
2018-12-22T05:42:37.164Z,11.02
2018-12-22T05:43:37.153Z,11.00
2018-12-22T05:44:37.121Z,10.89
2018-12-22T05:45:37.098Z,10.92
2018-12-22T05:46:37.082Z,10.86
2018-12-22T05:47:37.056Z,10.97
2018-12-22T05:48:37.071Z,10.96
2018-12-22T05:49:37.024Z,11.02
2018-12-22T05:50:37.003Z,10.97
2018-12-22T05:51:36.992Z,10.91
2018-12-22T05:52:36.969Z,10.73
2018-12-22T05:53:36.965Z,10.68
2018-12-22T05:54:36.955Z,10.66
2018-12-22T05:55:36.906Z,10.55
2018-12-22T05:56:36.901Z,10.38
2018-12-22T05:57:36.879Z,10.42
2018-12-22T05:58:36.862Z,10.40
2018-12-22T05:59:36.831Z,10.34
2018-12-22T06:00:36.832Z,10.17
2018-12-22T06:01:36.838Z,10.09
2018-12-22T06:02:36.781Z,10.11
2018-12-22T06:03:36.758Z,9.94
2018-12-22T06:04:36.787Z,9.81
2018-12-22T06:05:36.736Z,9.74
2018-12-22T06:06:36.699Z,9.57
2018-12-22T06:07:36.686Z,9.64
2018-12-22T06:08:36.664Z,9.50
2018-12-22T06:09:36.641Z,9.39
2018-12-22T06:10:36.647Z,9.39
2018-12-22T06:11:36.601Z,9.40
2018-12-22T06:12:36.579Z,9.32
2018-12-22T06:13:36.569Z,9.26
2018-12-22T06:14:36.542Z,9.31
2018-12-22T06:15:36.554Z,9.31
2018-12-22T06:16:37.218Z,9.31
2018-12-22T06:17:36.485Z,9.42
2018-12-22T06:18:36.466Z,9.40
2018-12-22T06:19:36.451Z,9.36
2018-12-22T06:20:36.426Z,9.46
2018-12-22T06:21:36.425Z,9.46
2018-12-22T06:22:36.402Z,9.50
2018-12-22T06:23:36.380Z,9.40
2018-12-22T06:24:36.357Z,9.46
2018-12-22T06:25:36.322Z,9.48
2018-12-22T06:26:36.327Z,9.47
2018-12-22T06:27:37.263Z,9.51
2018-12-22T06:28:37.220Z,9.53
2018-12-22T06:29:36.250Z,9.54
2018-12-22T06:30:36.231Z,9.65
2018-12-22T06:31:36.230Z,9.60
2018-12-22T06:32:36.186Z,9.66
2018-12-22T06:33:36.758Z,9.69
2018-12-22T06:34:36.149Z,9.72
2018-12-22T06:35:36.126Z,9.79
2018-12-22T06:36:36.111Z,9.97
2018-12-22T06:37:36.109Z,10.14
2018-12-22T06:38:36.083Z,10.23
2018-12-22T06:39:36.051Z,10.18
2018-12-22T06:40:36.027Z,10.34
2018-12-22T06:41:36.009Z,10.36
2018-12-22T06:42:35.998Z,10.51
2018-12-22T06:43:35.994Z,10.55
2018-12-22T06:44:35.951Z,10.51
2018-12-22T06:45:35.951Z,10.55
2018-12-22T06:46:35.911Z,10.66
2018-12-22T06:47:35.902Z,10.61
2018-12-22T06:48:35.921Z,10.61
2018-12-22T06:49:35.853Z,10.70
2018-12-22T06:50:35.861Z,10.60
2018-12-22T06:51:35.820Z,10.51
2018-12-22T06:52:35.812Z,10.34
2018-12-22T06:53:35.821Z,10.38
2018-12-22T06:54:35.754Z,10.53
2018-12-22T06:55:35.745Z,10.53
2018-12-22T06:56:35.740Z,10.47
2018-12-22T06:57:35.704Z,10.59
2018-12-22T06:58:35.683Z,10.52
2018-12-22T06:59:35.659Z,10.47
2018-12-22T07:00:35.638Z,10.41
2018-12-22T07:01:35.638Z,10.41
2018-12-22T07:02:35.600Z,10.36
2018-12-22T07:03:35.584Z,10.42
2018-12-22T07:04:35.574Z,10.38
2018-12-22T07:05:35.544Z,10.47
2018-12-22T07:06:35.547Z,10.30
2018-12-22T07:07:35.516Z,10.34
2018-12-22T07:08:35.504Z,10.41
2018-12-22T07:09:35.467Z,10.38
2018-12-22T07:10:35.449Z,10.38
2018-12-22T07:11:35.428Z,10.34
2018-12-22T07:12:35.407Z,10.20
2018-12-22T07:13:35.393Z,10.27
2018-12-22T07:14:35.396Z,10.27
2018-12-22T07:15:35.373Z,10.26
2018-12-22T07:16:35.334Z,10.23
2018-12-22T07:17:35.321Z,10.17
2018-12-22T07:18:35.298Z,10.15
2018-12-22T07:19:35.284Z,10.26
2018-12-22T07:20:35.275Z,10.33
2018-12-22T07:21:35.244Z,10.36
2018-12-22T07:22:35.225Z,10.47
2018-12-22T07:23:35.200Z,10.32
2018-12-22T07:24:35.197Z,10.29
2018-12-22T07:25:35.181Z,10.27
2018-12-22T07:26:35.168Z,10.20
2018-12-22T07:27:35.146Z,10.34
2018-12-22T07:28:35.109Z,10.48
2018-12-22T07:29:35.088Z,10.55
2018-12-22T07:30:35.074Z,10.53
2018-12-22T07:31:35.050Z,10.48
2018-12-22T07:32:35.019Z,10.51
2018-12-22T07:33:35.073Z,10.52
2018-12-22T07:34:34.987Z,10.56
2018-12-22T07:35:35.009Z,10.47
2018-12-22T07:36:34.953Z,10.56
2018-12-22T07:37:34.944Z,10.56
2018-12-22T07:38:34.924Z,10.59
2018-12-22T07:39:34.919Z,10.59
2018-12-22T07:40:34.870Z,10.67
2018-12-22T07:41:34.885Z,10.63
2018-12-22T07:42:34.838Z,10.64
2018-12-22T07:43:34.813Z,10.59
2018-12-22T07:44:34.797Z,10.53
2018-12-22T07:45:34.886Z,10.48
2018-12-22T07:46:34.760Z,10.53
2018-12-22T07:47:34.764Z,10.51
2018-12-22T07:48:34.732Z,10.52
2018-12-22T07:49:34.700Z,10.56
2018-12-22T07:50:34.716Z,10.52
2018-12-22T07:51:34.676Z,10.48
2018-12-22T07:52:34.647Z,10.53
2018-12-22T07:53:34.624Z,10.55
2018-12-22T07:54:34.605Z,10.51
2018-12-22T07:55:34.584Z,10.45
2018-12-22T07:56:34.583Z,10.40
2018-12-22T07:57:34.661Z,10.47
2018-12-22T07:58:34.527Z,10.55
2018-12-22T07:59:34.507Z,10.52
2018-12-22T08:00:35.219Z,10.51
2018-12-22T08:01:34.486Z,10.59
2018-12-22T08:02:34.467Z,10.73
2018-12-22T08:03:34.463Z,10.68
2018-12-22T08:04:34.421Z,10.70
2018-12-22T08:05:38.574Z,10.63
2018-12-22T08:06:34.374Z,10.74
2018-12-22T08:07:34.352Z,10.56
2018-12-22T08:08:34.355Z,10.63
2018-12-22T08:09:34.317Z,10.56
2018-12-22T08:10:34.308Z,10.61
2018-12-22T08:11:34.277Z,10.76
2018-12-22T08:12:34.259Z,10.86
2018-12-22T08:13:34.346Z,10.81
2018-12-22T08:14:34.226Z,10.82
2018-12-22T08:15:34.210Z,10.84
2018-12-22T08:16:34.182Z,10.82
2018-12-22T08:17:34.160Z,10.82
2018-12-22T08:18:34.144Z,10.64
2018-12-22T08:19:34.148Z,10.63
2018-12-22T08:20:34.103Z,10.60
2018-12-22T08:21:34.092Z,10.55
2018-12-22T08:22:34.070Z,10.60
2018-12-22T08:23:34.047Z,10.53
2018-12-22T08:24:34.059Z,10.47
2018-12-22T08:25:34.013Z,10.56
2018-12-22T08:26:33.988Z,10.55
2018-12-22T08:27:34.003Z,10.63
2018-12-22T08:28:33.948Z,10.67
2018-12-22T08:29:33.940Z,10.78
2018-12-22T08:30:33.930Z,10.76
2018-12-22T08:31:33.892Z,10.86
2018-12-22T08:32:33.877Z,10.89
2018-12-22T08:33:33.860Z,10.78
2018-12-22T08:34:33.837Z,10.78
2018-12-22T08:35:33.838Z,10.61
2018-12-22T08:36:33.791Z,10.78
2018-12-22T08:37:35.505Z,10.73
2018-12-22T08:38:33.761Z,10.82
2018-12-22T08:39:33.744Z,10.84
2018-12-22T08:40:33.721Z,10.86
2018-12-22T08:41:33.731Z,10.82
2018-12-22T08:42:33.697Z,10.78
2018-12-22T08:43:33.665Z,10.76
2018-12-22T08:44:33.647Z,10.78
2018-12-22T08:45:33.643Z,10.82
2018-12-22T08:46:33.616Z,10.68
2018-12-22T08:47:33.598Z,10.74
2018-12-22T08:48:33.569Z,10.76
2018-12-22T08:49:33.548Z,10.63
2018-12-22T08:50:33.557Z,10.61
2018-12-22T08:51:33.518Z,10.66
2018-12-22T08:52:33.492Z,10.73
2018-12-22T08:53:33.893Z,10.84
2018-12-22T08:54:33.455Z,10.82
2018-12-22T08:55:33.458Z,10.76
2018-12-22T08:56:33.422Z,10.78
2018-12-22T08:57:33.420Z,10.74
2018-12-22T08:58:33.388Z,10.81
2018-12-22T08:59:33.356Z,10.81
2018-12-22T09:00:33.338Z,10.84
2018-12-22T09:01:33.320Z,10.85
2018-12-22T09:02:33.299Z,10.76
2018-12-22T09:03:33.311Z,10.88
2018-12-22T09:04:33.272Z,10.94
2018-12-22T09:05:33.243Z,10.92
2018-12-22T09:06:33.231Z,10.91
2018-12-22T09:07:33.222Z,10.88
2018-12-22T09:08:33.191Z,10.81
2018-12-22T09:09:33.188Z,10.85
2018-12-22T09:10:33.160Z,10.92
2018-12-22T09:11:33.129Z,10.88
2018-12-22T09:12:33.112Z,10.74
2018-12-22T09:13:33.094Z,10.84
2018-12-22T09:14:33.089Z,10.68
2018-12-22T09:15:33.055Z,10.70
2018-12-22T09:16:33.044Z,10.71
2018-12-22T09:17:33.018Z,10.84
2018-12-22T09:18:33.002Z,10.79
2018-12-22T09:19:32.998Z,10.88
2018-12-22T09:20:32.965Z,10.81
2018-12-22T09:21:32.943Z,10.89
2018-12-22T09:22:32.924Z,10.94
2018-12-22T09:23:32.907Z,10.97
2018-12-22T09:24:32.903Z,10.99
2018-12-22T09:25:32.901Z,11.00
2018-12-22T09:26:32.855Z,11.02
2018-12-22T09:27:32.838Z,11.04
2018-12-22T09:28:32.813Z,10.99
2018-12-22T09:29:32.792Z,10.94
2018-12-22T09:30:32.772Z,10.88
2018-12-22T09:31:33.199Z,10.94
2018-12-22T09:32:32.738Z,10.82
2018-12-22T09:33:32.720Z,10.85
2018-12-22T09:34:32.727Z,10.88
2018-12-22T09:35:32.680Z,10.92
2018-12-22T09:36:32.655Z,10.91
2018-12-22T09:37:32.684Z,10.96
2018-12-22T09:38:32.622Z,11.00
2018-12-22T09:39:32.601Z,11.02
2018-12-22T09:40:32.602Z,11.09
2018-12-22T09:41:32.564Z,11.09
2018-12-22T09:42:32.564Z,11.19
2018-12-22T09:43:32.521Z,11.33
2018-12-22T09:44:32.509Z,11.22
2018-12-22T09:45:32.488Z,11.37
2018-12-22T09:46:32.485Z,11.35
2018-12-22T09:47:32.450Z,11.37
2018-12-22T09:48:32.462Z,11.36
2018-12-22T09:49:32.438Z,11.25
2018-12-22T09:50:32.397Z,11.28
2018-12-22T09:51:32.378Z,11.29
2018-12-22T09:52:32.365Z,11.25
2018-12-22T09:53:32.363Z,11.19
2018-12-22T09:54:32.324Z,11.21
2018-12-22T09:55:32.305Z,11.24
2018-12-22T09:56:32.288Z,11.25
2018-12-22T09:57:32.268Z,11.22
2018-12-22T09:58:32.250Z,11.25
2018-12-22T09:59:32.248Z,11.24
2018-12-22T10:00:32.217Z,11.27
2018-12-22T10:01:32.194Z,11.27
2018-12-22T10:02:32.172Z,11.28
2018-12-22T10:03:32.162Z,11.32
2018-12-22T10:04:32.146Z,11.29
2018-12-22T10:05:32.133Z,11.32
2018-12-22T10:06:32.117Z,11.29
2018-12-22T10:07:32.084Z,11.33
2018-12-22T10:08:32.070Z,11.43
2018-12-22T10:09:32.048Z,11.40
2018-12-22T10:10:32.043Z,11.46
2018-12-22T10:11:32.008Z,11.44
2018-12-22T10:12:31.997Z,11.39
2018-12-22T10:13:31.975Z,11.42
2018-12-22T10:14:31.957Z,11.37
2018-12-22T10:15:31.960Z,11.42
2018-12-22T10:16:31.925Z,11.37
2018-12-22T10:17:31.902Z,11.46
2018-12-22T10:18:31.883Z,11.43
2018-12-22T10:19:31.882Z,11.42
2018-12-22T10:20:31.860Z,11.39
2018-12-22T10:21:31.843Z,11.47
2018-12-22T10:22:31.813Z,11.44
2018-12-22T10:23:31.795Z,11.47
2018-12-22T10:24:31.777Z,11.46
2018-12-22T10:25:31.759Z,11.36
2018-12-22T10:26:31.738Z,11.52
2018-12-22T10:27:31.763Z,11.55
2018-12-22T10:28:31.706Z,11.46
2018-12-22T10:29:31.699Z,11.51
2018-12-22T10:30:31.664Z,11.47
2018-12-22T10:31:31.644Z,11.46
2018-12-22T10:32:34.260Z,11.44
2018-12-22T10:33:31.611Z,11.54
2018-12-22T10:34:31.601Z,11.42
2018-12-22T10:35:31.591Z,11.51
2018-12-22T10:36:31.565Z,11.43
2018-12-22T10:37:31.557Z,11.44
2018-12-22T10:38:31.523Z,11.43
2018-12-22T10:39:31.507Z,11.46
2018-12-22T10:40:31.488Z,11.55
2018-12-22T10:41:31.466Z,11.43
2018-12-22T10:42:31.473Z,11.49
2018-12-22T10:43:31.431Z,11.42
2018-12-22T10:44:31.419Z,11.52
2018-12-22T10:45:31.398Z,11.47
2018-12-22T10:46:31.374Z,11.42
2018-12-22T10:47:31.369Z,11.39
2018-12-22T10:48:31.352Z,11.39
2018-12-22T10:49:31.340Z,11.28
2018-12-22T10:50:31.307Z,11.25
2018-12-22T10:51:31.290Z,11.22
2018-12-22T10:52:31.272Z,11.22
2018-12-22T10:53:31.261Z,11.10
2018-12-22T10:54:31.230Z,11.14
2018-12-22T10:55:31.765Z,11.14
2018-12-22T10:56:31.198Z,11.17
2018-12-22T10:57:31.175Z,11.15
2018-12-22T10:58:31.155Z,11.11
2018-12-22T10:59:31.132Z,11.19
2018-12-22T11:00:31.161Z,11.14
2018-12-22T11:01:31.098Z,11.14
2018-12-22T11:02:31.081Z,11.11
2018-12-22T11:03:32.069Z,11.17
2018-12-22T11:04:31.043Z,11.11
2018-12-22T11:05:31.023Z,11.04
2018-12-22T11:06:31.033Z,11.03
2018-12-22T11:07:30.993Z,11.09
2018-12-22T11:08:30.965Z,11.15
2018-12-22T11:09:30.954Z,11.09
2018-12-22T11:10:30.946Z,11.04
2018-12-22T11:11:30.914Z,11.00
2018-12-22T11:12:30.922Z,10.89
2018-12-22T11:13:30.877Z,10.84
2018-12-22T11:14:30.862Z,10.89
2018-12-22T11:15:30.841Z,10.88
2018-12-22T11:16:30.835Z,10.94
2018-12-22T11:17:30.802Z,10.82
2018-12-22T11:18:30.789Z,10.86
2018-12-22T11:19:30.765Z,10.88
2018-12-22T11:20:30.755Z,10.88
2018-12-22T11:21:30.735Z,10.84
2018-12-22T11:22:30.730Z,10.84
2018-12-22T11:23:30.695Z,11.02
2018-12-22T11:24:30.673Z,10.99
2018-12-22T11:25:30.658Z,10.97
2018-12-22T11:26:30.639Z,11.00
2018-12-22T11:27:30.638Z,10.92
2018-12-22T11:28:30.604Z,11.02
2018-12-22T11:29:30.578Z,11.04
2018-12-22T11:30:30.573Z,11.10
2018-12-22T11:31:34.980Z,11.17
2018-12-22T11:32:30.535Z,11.15
2018-12-22T11:33:30.520Z,11.10
2018-12-22T11:34:30.531Z,11.09
2018-12-22T11:35:30.465Z,11.14
2018-12-22T11:36:30.464Z,11.10
2018-12-22T11:37:30.437Z,11.03
2018-12-22T11:38:30.447Z,11.03
2018-12-22T11:39:30.414Z,11.07
2018-12-22T11:40:30.415Z,11.07
2018-12-22T11:41:30.371Z,11.17
2018-12-22T11:42:30.345Z,11.15
2018-12-22T11:43:30.325Z,11.11
2018-12-22T11:44:30.305Z,11.19
2018-12-22T11:45:30.306Z,11.25
2018-12-22T11:46:30.273Z,11.21
2018-12-22T11:47:30.253Z,11.29
2018-12-22T11:51:54.244Z,11.35
2018-12-22T11:52:54.225Z,11.37
2018-12-22T11:53:54.234Z,11.35
2018-12-22T11:54:54.196Z,11.46
2018-12-22T11:55:54.186Z,11.47
2018-12-22T11:56:54.149Z,11.33
2018-12-22T11:57:54.132Z,11.42
2018-12-22T11:58:54.119Z,11.37
2018-12-22T11:59:54.109Z,11.43
2018-12-22T12:00:54.084Z,11.46
2018-12-22T12:01:54.079Z,11.46
2018-12-22T12:02:54.043Z,11.47
2018-12-22T12:03:54.028Z,11.57
2018-12-22T12:04:54.006Z,11.61
2018-12-22T12:05:53.985Z,11.61
2018-12-22T12:06:53.977Z,11.61
2018-12-22T12:07:53.966Z,11.64
2018-12-22T12:08:53.934Z,11.60
2018-12-22T12:09:53.917Z,11.58
2018-12-22T12:10:53.895Z,11.62
2018-12-22T12:11:53.878Z,11.58
2018-12-22T12:12:53.880Z,11.55
2018-12-22T12:13:53.841Z,11.58
2018-12-22T12:14:53.823Z,11.51
2018-12-22T12:15:53.804Z,11.62
2018-12-22T12:16:54.991Z,11.64
2018-12-22T12:17:53.767Z,11.70
2018-12-22T12:18:53.764Z,11.73
2018-12-22T12:19:53.728Z,11.75
2018-12-22T12:20:53.723Z,11.83
2018-12-22T12:21:53.701Z,11.75
2018-12-22T12:22:53.682Z,11.72
2018-12-22T12:23:53.677Z,11.72
2018-12-22T12:24:53.642Z,11.70
2018-12-22T12:25:53.624Z,11.72
2018-12-22T12:26:53.608Z,11.72
2018-12-22T12:27:53.584Z,11.83
2018-12-22T12:28:53.682Z,11.78
2018-12-22T12:29:53.557Z,11.82
2018-12-22T12:30:53.545Z,11.95
2018-12-22T12:31:53.518Z,11.94
2018-12-22T12:32:53.617Z,11.83
2018-12-22T12:33:53.480Z,11.91
2018-12-22T12:34:53.464Z,11.90
2018-12-22T12:35:53.443Z,11.96
2018-12-22T12:36:53.429Z,11.98
2018-12-22T12:37:53.405Z,11.86
2018-12-22T12:38:53.404Z,11.96
2018-12-22T12:39:53.373Z,11.90
2018-12-22T12:40:53.351Z,11.95
2018-12-22T12:41:53.355Z,11.80
2018-12-22T12:42:53.325Z,11.88
2018-12-22T12:43:53.323Z,11.86
2018-12-22T12:44:53.307Z,11.83
2018-12-22T12:45:53.272Z,11.85
2018-12-22T12:46:53.240Z,11.96
2018-12-22T12:47:53.229Z,11.96
2018-12-22T12:48:53.208Z,11.99
2018-12-22T12:49:53.194Z,11.99
2018-12-22T12:50:53.189Z,12.05
2018-12-22T12:51:53.170Z,12.02
2018-12-22T12:52:53.152Z,11.99
2018-12-22T12:53:53.123Z,12.12
2018-12-22T12:54:53.104Z,12.14
2018-12-22T12:55:53.079Z,12.07
2018-12-22T12:56:53.074Z,12.12